Time,TemperatureF,DewpointF,PressureIn,WindDirection,WindDirectionDegrees,WindSpeedMPH,WindSpeedGustMPH,Humidity,HourlyPrecipIn,Conditions,Clouds,dailyrainin,SoftwareType,DateUTC
2013-07-19 00:12:00,74.0,72.0,30.05,North,5,0.0,0.0,95,0.00,,,0.01,,2013-07-19 04:12:00,
2013-07-19 00:33:00,74.0,72.0,30.05,North,5,0.0,0.0,95,0.00,,,0.01,,2013-07-19 04:33:00,
2013-07-19 00:44:00,73.0,71.0,30.05,North,5,0.0,0.0,95,0.00,,,0.01,,2013-07-19 04:44:00,
2013-07-19 00:52:00,73.0,72.0,30.05,North,5,0.0,0.0,96,0.00,,,0.01,,2013-07-19 04:52:00,
2013-07-19 01:02:00,73.0,72.0,30.05,North,5,0.0,0.0,96,0.00,,,0.01,,2013-07-19 05:02:00,
2013-07-19 01:11:00,73.0,72.0,30.05,North,5,0.0,0.0,96,0.00,,,0.01,,2013-07-19 05:11:00,
2013-07-19 01:32:00,73.0,72.0,30.05,North,5,0.0,0.0,96,0.00,,,0.01,,2013-07-19 05:32:00,
2013-07-19 01:43:00,73.0,72.0,30.04,North,5,0.0,0.0,96,0.00,,,0.01,,2013-07-19 05:43:00,
2013-07-19 01:53:00,73.0,72.0,30.04,North,5,0.0,0.0,96,0.00,,,0.01,,2013-07-19 05:53:00,
2013-07-19 02:01:00,73.0,72.0,30.03,North,5,0.0,0.0,96,0.00,,,0.01,,2013-07-19 06:01:00,
2013-07-19 02:11:00,73.0,72.0,30.03,North,5,0.0,0.0,96,0.00,,,0.01,,2013-07-19 06:11:00,
2013-07-19 02:22:00,73.0,72.0,30.03,North,5,0.0,0.0,96,0.00,,,0.01,,2013-07-19 06:22:00,
2013-07-19 02:33:00,73.0,72.0,30.03,North,5,0.0,0.0,96,0.00,,,0.01,,2013-07-19 06:33:00,
2013-07-19 02:43:00,73.0,72.0,30.03,North,5,0.0,0.0,96,0.00,,,0.01,,2013-07-19 06:43:00,
2013-07-19 02:53:00,73.0,72.0,30.03,North,5,0.0,0.0,96,0.00,,,0.01,,2013-07-19 06:53:00,
2013-07-19 03:01:00,73.0,72.0,30.03,North,5,0.0,0.0,96,0.00,,,0.01,,2013-07-19 07:01:00,
2013-07-19 03:12:00,72.0,71.0,30.02,North,5,0.0,0.0,96,0.00,,,0.01,,2013-07-19 07:12:00,
2013-07-19 03:22:00,72.0,71.0,30.02,North,5,0.0,0.0,96,0.00,,,0.01,,2013-07-19 07:22:00,
2013-07-19 03:32:00,72.0,71.0,30.01,North,5,0.0,0.0,96,0.00,,,0.01,,2013-07-19 07:32:00,
2013-07-19 03:43:00,72.0,71.0,30.01,North,5,0.0,0.0,96,0.00,,,0.01,,2013-07-19 07:43:00,
2013-07-19 03:53:00,72.0,71.0,30.01,North,5,0.0,0.0,96,0.00,,,0.01,,2013-07-19 07:53:00,
2013-07-19 04:01:00,72.0,71.0,30.01,North,5,0.0,0.0,96,0.00,,,0.01,,2013-07-19 08:01:00,
2013-07-19 04:12:00,72.0,71.0,30.01,North,5,0.0,0.0,96,0.00,,,0.01,,2013-07-19 08:12:00,
2013-07-19 04:22:00,71.0,70.0,30.01,North,5,0.0,0.0,96,0.00,,,0.01,,2013-07-19 08:22:00,
2013-07-19 04:33:00,71.0,70.0,30.01,North,5,0.0,0.0,96,0.00,,,0.01,,2013-07-19 08:33:00,
2013-07-19 04:43:00,71.0,70.0,30.01,North,5,0.0,0.0,96,0.00,,,0.01,,2013-07-19 08:43:00,
2013-07-19 04:52:00,71.0,70.0,30.01,North,5,0.0,0.0,96,0.00,,,0.01,,2013-07-19 08:52:00,
2013-07-19 05:02:00,71.0,70.0,30.01,North,5,0.0,0.0,96,0.00,,,0.01,,2013-07-19 09:02:00,
2013-07-19 05:11:00,71.0,70.0,30.01,North,5,0.0,0.0,96,0.00,,,0.01,,2013-07-19 09:11:00,
2013-07-19 05:22:00,71.0,70.0,30.00,North,5,0.0,0.0,96,0.00,,,0.00,,2013-07-19 09:22:00,
2013-07-19 05:32:00,71.0,70.0,30.00,North,5,0.0,0.0,96,0.00,,,0.00,,2013-07-19 09:32:00,
2013-07-19 05:43:00,71.0,70.0,30.01,North,5,0.0,0.0,96,0.00,,,0.00,,2013-07-19 09:43:00,
2013-07-19 05:52:00,71.0,70.0,30.01,North,5,0.0,0.0,96,0.00,,,0.00,,2013-07-19 09:52:00,
2013-07-19 06:01:00,71.0,70.0,30.01,North,5,0.0,0.0,96,0.00,,,0.00,,2013-07-19 10:01:00,
2013-07-19 06:11:00,70.0,69.0,30.01,North,5,0.0,0.0,96,0.00,,,0.00,,2013-07-19 10:11:00,
2013-07-19 06:32:00,70.0,69.0,30.01,North,5,0.0,0.0,96,0.00,,,0.00,,2013-07-19 10:32:00,
2013-07-19 06:43:00,70.0,69.0,30.01,North,5,0.0,0.0,97,0.00,,,0.00,,2013-07-19 10:43:00,
2013-07-19 06:52:00,70.0,69.0,30.01,North,5,0.0,0.0,97,0.00,,,0.00,,2013-07-19 10:52:00,
2013-07-19 07:12:00,70.0,69.0,30.01,North,5,0.0,0.0,96,0.00,,,0.00,,2013-07-19 11:12:00,
2013-07-19 07:33:00,70.0,69.0,30.01,North,5,0.0,0.0,96,0.00,,,0.00,,2013-07-19 11:33:00,
2013-07-19 07:43:00,70.0,69.0,30.01,North,5,0.0,0.0,97,0.00,,,0.00,,2013-07-19 11:43:00,
2013-07-19 07:52:00,70.0,69.0,30.02,North,5,0.0,0.0,97,0.00,,,0.00,,2013-07-19 11:52:00,
2013-07-19 08:01:00,70.0,69.0,30.02,North,5,0.0,0.0,97,0.00,,,0.00,,2013-07-19 12:01:00,
2013-07-19 08:12:00,70.0,69.0,30.02,North,5,0.0,0.0,97,0.00,,,0.00,,2013-07-19 12:12:00,
2013-07-19 08:22:00,71.0,70.0,30.03,North,5,0.0,0.0,98,0.00,,,0.00,,2013-07-19 12:22:00,
2013-07-19 08:43:00,71.0,70.0,30.03,North,5,0.0,1.0,98,0.00,,,0.00,,2013-07-19 12:43:00,
2013-07-19 08:53:00,72.0,71.0,30.03,North,5,0.0,2.0,98,0.00,,,0.00,,2013-07-19 12:53:00,
2013-07-19 09:12:00,72.0,71.0,30.03,North,5,0.0,3.0,98,0.00,,,0.00,,2013-07-19 13:12:00,
2013-07-19 09:22:00,73.0,72.0,30.03,North,5,2.0,4.0,98,0.00,,,0.00,,2013-07-19 13:22:00,
2013-07-19 09:53:00,78.0,75.0,30.04,North,5,0.0,4.0,90,0.00,,,0.00,,2013-07-19 13:53:00,
2013-07-19 10:02:00,78.0,75.0,30.04,North,5,0.0,4.0,90,0.00,,,0.00,,2013-07-19 14:02:00,
2013-07-19 10:12:00,80.0,75.0,30.04,North,5,1.0,5.0,84,0.00,,,0.00,,2013-07-19 14:12:00,
2013-07-19 10:33:00,82.0,76.0,30.04,North,5,1.0,6.0,81,0.00,,,0.00,,2013-07-19 14:33:00,
2013-07-19 10:43:00,83.0,75.0,30.04,North,5,3.0,7.0,77,0.00,,,0.00,,2013-07-19 14:43:00,
2013-07-19 10:53:00,84.0,75.0,30.04,North,5,2.0,5.0,75,0.00,,,0.00,,2013-07-19 14:53:00,
2013-07-19 11:02:00,84.0,75.0,30.04,North,5,2.0,5.0,75,0.00,,,0.00,,2013-07-19 15:02:00,
2013-07-19 11:11:00,84.0,74.0,30.04,North,5,1.0,7.0,72,0.00,,,0.00,,2013-07-19 15:11:00,
2013-07-19 11:23:00,85.0,74.0,30.04,North,5,2.0,8.0,70,0.00,,,0.00,,2013-07-19 15:23:00,
2013-07-19 11:32:00,85.0,74.0,30.04,North,5,2.0,8.0,70,0.00,,,0.00,,2013-07-19 15:32:00,
2013-07-19 11:43:00,85.0,74.0,30.04,North,5,2.0,6.0,69,0.00,,,0.00,,2013-07-19 15:43:00,
2013-07-19 11:52:00,85.0,73.0,30.04,North,5,3.0,7.0,68,0.00,,,0.00,,2013-07-19 15:52:00,
2013-07-19 12:01:00,85.0,73.0,30.04,North,5,3.0,7.0,68,0.00,,,0.00,,2013-07-19 16:01:00,
2013-07-19 12:11:00,87.0,75.0,30.04,North,5,1.0,4.0,67,0.00,,,0.00,,2013-07-19 16:11:00,
2013-07-19 12:32:00,88.0,74.0,30.03,North,5,2.0,8.0,64,0.00,,,0.00,,2013-07-19 16:32:00,
2013-07-19 12:43:00,89.0,75.0,30.03,North,5,4.0,10.0,63,0.00,,,0.00,,2013-07-19 16:43:00,
2013-07-19 12:53:00,89.0,74.0,30.02,North,5,2.0,8.0,62,0.00,,,0.00,,2013-07-19 16:53:00,
2013-07-19 13:02:00,89.0,74.0,30.02,North,5,2.0,8.0,62,0.00,,,0.00,,2013-07-19 17:02:00,
2013-07-19 13:12:00,89.0,71.0,30.01,North,5,2.0,9.0,56,0.00,,,0.00,,2013-07-19 17:12:00,
2013-07-19 13:32:00,90.0,71.0,30.01,North,5,2.0,7.0,54,0.00,,,0.00,,2013-07-19 17:32:00,
2013-07-19 13:43:00,90.0,73.0,30.01,North,5,2.0,6.0,57,0.00,,,0.00,,2013-07-19 17:43:00,
2013-07-19 14:01:00,91.0,73.0,30.00,North,5,3.0,7.0,55,0.00,,,0.00,,2013-07-19 18:01:00,
2013-07-19 14:11:00,90.0,73.0,29.99,North,5,1.0,6.0,58,0.00,,,0.00,,2013-07-19 18:11:00,
2013-07-19 14:32:00,90.0,72.0,29.98,North,5,1.0,7.0,55,0.00,,,0.00,,2013-07-19 18:32:00,
2013-07-19 14:42:00,91.0,74.0,29.98,North,5,1.0,7.0,58,0.00,,,0.00,,2013-07-19 18:42:00,
2013-07-19 15:11:00,91.0,74.0,29.96,North,5,1.0,6.0,57,0.00,,,0.00,,2013-07-19 19:11:00,
2013-07-19 15:32:00,92.0,73.0,29.96,North,5,2.0,5.0,55,0.00,,,0.00,,2013-07-19 19:32:00,
2013-07-19 15:43:00,92.0,73.0,29.96,North,5,3.0,6.0,55,0.00,,,0.00,,2013-07-19 19:43:00,
2013-07-19 15:52:00,91.0,75.0,29.95,North,5,0.0,5.0,60,0.00,,,0.00,,2013-07-19 19:52:00,
2013-07-19 16:11:00,91.0,73.0,29.95,North,5,3.0,6.0,56,0.00,,,0.00,,2013-07-19 20:11:00,
2013-07-19 16:22:00,91.0,73.0,29.95,North,5,5.0,9.0,56,0.00,,,0.00,,2013-07-19 20:22:00,
2013-07-19 16:43:00,91.0,74.0,29.93,North,5,1.0,5.0,58,0.00,,,0.00,,2013-07-19 20:43:00,
2013-07-19 16:52:00,91.0,73.0,29.93,North,5,2.0,7.0,55,0.00,,,0.00,,2013-07-19 20:52:00,
2013-07-19 17:01:00,91.0,73.0,29.93,North,5,2.0,7.0,55,0.00,,,0.00,,2013-07-19 21:01:00,
2013-07-19 17:11:00,91.0,73.0,29.93,North,5,4.0,7.0,56,0.00,,,0.00,,2013-07-19 21:11:00,
2013-07-19 17:22:00,92.0,73.0,29.93,North,5,2.0,8.0,55,0.00,,,0.00,,2013-07-19 21:22:00,
2013-07-19 17:42:00,92.0,73.0,29.92,North,5,3.0,7.0,54,0.00,,,0.00,,2013-07-19 21:42:00,
2013-07-19 17:52:00,92.0,75.0,29.92,North,5,2.0,7.0,57,0.00,,,0.00,,2013-07-19 21:52:00,
2013-07-19 18:01:00,92.0,75.0,29.92,North,5,2.0,7.0,57,0.00,,,0.00,,2013-07-19 22:01:00,
2013-07-19 18:11:00,92.0,75.0,29.92,North,5,3.0,8.0,57,0.00,,,0.00,,2013-07-19 22:11:00,
2013-07-19 18:32:00,91.0,74.0,29.92,North,5,4.0,9.0,57,0.00,,,0.00,,2013-07-19 22:32:00,
2013-07-19 18:43:00,91.0,75.0,29.91,North,5,3.0,7.0,59,0.00,,,0.00,,2013-07-19 22:43:00,
2013-07-19 18:52:00,90.0,74.0,29.91,North,5,2.0,6.0,59,0.00,,,0.00,,2013-07-19 22:52:00,
2013-07-19 19:01:00,90.0,74.0,29.91,North,5,2.0,6.0,59,0.00,,,0.00,,2013-07-19 23:01:00,
2013-07-19 19:11:00,89.0,75.0,29.91,North,5,0.0,4.0,63,0.00,,,0.00,,2013-07-19 23:11:00,
2013-07-19 19:43:00,84.0,75.0,29.91,North,5,0.0,1.0,75,0.00,,,0.00,,2013-07-19 23:43:00,
2013-07-19 19:52:00,82.0,75.0,29.91,North,5,0.0,2.0,79,0.00,,,0.00,,2013-07-19 23:52:00,
2013-07-19 20:01:00,80.0,74.0,29.92,North,5,0.0,1.0,82,0.00,,,0.00,,2013-07-20 00:01:00,
2013-07-19 20:11:00,80.0,74.0,29.92,North,5,0.0,1.0,82,0.00,,,0.00,,2013-07-20 00:11:00,
2013-07-19 20:22:00,79.0,74.0,29.92,North,5,0.0,1.0,85,0.00,,,0.00,,2013-07-20 00:22:00,
2013-07-19 20:32:00,78.0,73.0,29.92,North,5,0.0,1.0,86,0.00,,,0.00,,2013-07-20 00:32:00,
2013-07-19 20:43:00,78.0,73.0,29.92,North,5,0.0,1.0,86,0.00,,,0.00,,2013-07-20 00:43:00,
2013-07-19 20:52:00,78.0,74.0,29.92,North,5,0.0,0.0,88,0.00,,,0.00,,2013-07-20 00:52:00,
2013-07-19 21:01:00,78.0,74.0,29.93,North,5,1.0,3.0,89,0.00,,,0.00,,2013-07-20 01:01:00,
2013-07-19 21:11:00,78.0,74.0,29.93,North,5,1.0,3.0,89,0.00,,,0.00,,2013-07-20 01:11:00,
2013-07-19 21:22:00,77.0,74.0,29.93,North,5,0.0,1.0,90,0.00,,,0.00,,2013-07-20 01:22:00,
2013-07-19 21:32:00,77.0,74.0,29.93,North,5,0.0,0.0,91,0.01,,,0.01,,2013-07-20 01:32:00,
2013-07-19 21:52:00,76.0,74.0,29.93,North,5,0.0,0.0,92,0.01,,,0.01,,2013-07-20 01:52:00,
2013-07-19 22:02:00,76.0,73.0,29.94,North,5,0.0,1.0,91,0.01,,,0.01,,2013-07-20 02:02:00,
2013-07-19 22:11:00,76.0,73.0,29.94,North,5,0.0,1.0,91,0.01,,,0.01,,2013-07-20 02:11:00,
2013-07-19 22:22:00,75.0,73.0,29.95,North,5,0.0,0.0,92,0.01,,,0.01,,2013-07-20 02:22:00,
2013-07-19 22:33:00,74.0,72.0,29.95,North,5,0.0,0.0,93,0.00,,,0.01,,2013-07-20 02:33:00,
2013-07-19 22:43:00,74.0,72.0,29.95,North,5,0.0,0.0,93,0.00,,,0.01,,2013-07-20 02:43:00,
2013-07-19 22:52:00,74.0,72.0,29.96,North,5,0.0,0.0,94,0.00,,,0.01,,2013-07-20 02:52:00,
2013-07-19 23:02:00,74.0,72.0,29.96,North,5,0.0,0.0,94,0.00,,,0.01,,2013-07-20 03:02:00,
2013-07-19 23:12:00,73.0,71.0,29.96,North,5,0.0,0.0,95,0.00,,,0.01,,2013-07-20 03:12:00,
2013-07-19 23:22:00,73.0,71.0,29.96,North,5,0.0,0.0,95,0.00,,,0.01,,2013-07-20 03:22:00,
2013-07-19 23:44:00,73.0,72.0,29.96,North,5,0.0,0.0,96,0.00,,,0.01,,2013-07-20 03:44:00,
2013-07-19 23:53:00,73.0,72.0,29.96,North,5,0.0,0.0,96,0.00,,,0.01,,2013-07-20 03:53:00,